Terminal Aerodrome Forecast
Issued by NWS

Current Version | Previous Version | Text Only | Print | Product List | Glossary On
Versions: 1 2 3 4 5 6 7 8 9 10 11 12 13 14 15 16 17 18 19 20 21 22 23 24 25 26 27 28 29 30 31 32 33 34 35 36 37 38 39 40
000
FTAK31 PAFA 272352
TAFABT
TAF
PABT 272352Z 2800/2824 22004KT P6SM FEW008 SCT015 BKN040
     FM280800 VRB03KT P6SM FEW060 SCT100 SCT200
     FM281200 15011G17KT 4SM -SN BR OVC015
     FM281500 06008G17KT 1 1/2SM -SN BR OVC015=

USA.gov is the U.S. government's official web portal to all federal, state and local government web resources and services.